Aérodrome :
LOGIN :

S'inscrire | Disclaimer

   EN    FR    IT 

 










Légende :    VFR   VFR Marginal   IFR   IFR Intensif   IFR Très Intensif
Visi : 
Plafond : 
>= 8 km
>= 3000ft
5 à 8 km
1000 à 3000 ft
1500m à 5 km
500 à 1000 ft
800 à 1500m
200 à 500 ft
< 800m
< 200 ft
Symboles :   Orages  Brouillard  Fortes neiges  Fortes précipitations  Vent > 20 kt
SIGMETs :   Divers  Orages  Givrage  Turbulence  Onde Orograph.  Cendres Volcan.






- Altitude de l'aérodrome : 505 ft
- Code IATA : SXB


LFST - Strasbourg

DERNIER METAR :
  • 291730Z AUTO 05014KT CAVOK 21/05 Q1021 NOSIG

METARs EXPIRÉS :
  • 291700Z AUTO 04013KT CAVOK 22/05 Q1021 NOSIG
  • 291630Z AUTO 04014KT CAVOK 22/05 Q1021 NOSIG
  • 291600Z AUTO 04014KT CAVOK 22/05 Q1022 NOSIG
  • 291530Z AUTO 06013KT CAVOK 22/05 Q1022 NOSIG
  • 291500Z AUTO 05012KT 030V090 CAVOK 22/05 Q1022 NOSIG

TAF TAF LFST
Valide du 29 à 18h jusqu'au 30 à 18h UTC


291703Z 2918/3018 04012KT CAVOK
BECMG 2919/2921 02006KT
BECMG 3008/3010 04010G20KT



MET'MAP, la Météo Aéronautique d'un coup d'oeil ! - Copyright ORBIFLY Décembre 2007 - Disclaimer

ORBIFLY MET'MAP TEAM :

Programmation & Développement : Alexandra Zaïnal
Sur une idée originale de : Baudouin d'Aumeries
Assistance à la programmation : Marc-Olivier Méhu
Soutien technique & logistique : Manuel Goepfert

Contact : metmap@orbifly.com




SOURCES & CREDITS :

   NOAA